S73 Hermelin — DRCG — position and weather

sailwx.info

Track history (hours):
 
Tides and Currents Weather Stations Pressure Air Temp Water Temp Dewpoint Dewpoint Depression Visibility Wind Speed Wind Dir Waves Ship Positions

S73 Hermelin

Last reported at 2015-Jun-24 09:09 UTC. Time now 2015-Jun-30 03:30 UTC.
Position N 54°10' E 012°07'.

Length 58 m.

Type: Military. MMSI: 211210610.

Date/timePositionNaut miles runAvg speedWind from/ knotsBaromVisibWave heightAir tempDewpointWater temp
2015-Jun-24 09:09N 54°10' E 012°07'3 4.8
2015-Jun-24 08:30N 54°13' E 012°04'7 7.2
2015-Jun-24 07:34N 54°15' E 011°53'  
2015-Jun-17 16:10N 54°10' E 012°07'10425.7
2015-Jun-17 12:08N 55°05' E 014°38'  
2015-Jun-14 15:33N 55°16' E 015°25'9 9.4
2015-Jun-14 14:33N 55°18' E 015°09'8 7.5
2015-Jun-14 13:32N 55°26' E 015°10'8 8.6
2015-Jun-14 12:33N 55°30' E 015°22'8 7.2
2015-Jun-14 11:29N 55°23' E 015°28'7 6.7
2015-Jun-14 10:29N 55°30' E 015°28'  
Track history (hours):
 
Tides and Currents Weather Stations Pressure Air Temp Water Temp Dewpoint Dewpoint Depression Visibility Wind Speed Wind Dir Waves Ship Positions

S73 Hermelin

Last reported at 2015-Jun-24 09:09 UTC. Time now 2015-Jun-30 03:30 UTC.
Position N 54°10' E 012°07'.

Length 58 m.

Type: Military. MMSI: 211210610.

Date/timePositionNaut miles runAvg speedWind from/ knotsBaromVisibWave heightAir tempDewpointWater temp
2015-Jun-24 09:09N 54°10' E 012°07'3 4.8
2015-Jun-24 08:30N 54°13' E 012°04'7 7.2
2015-Jun-24 07:34N 54°15' E 011°53'  
2015-Jun-17 16:10N 54°10' E 012°07'10425.7
2015-Jun-17 12:08N 55°05' E 014°38'  
2015-Jun-14 15:33N 55°16' E 015°25'9 9.4
2015-Jun-14 14:33N 55°18' E 015°09'8 7.5
2015-Jun-14 13:32N 55°26' E 015°10'8 8.6
2015-Jun-14 12:33N 55°30' E 015°22'8 7.2
2015-Jun-14 11:29N 55°23' E 015°28'7 6.7
2015-Jun-14 10:29N 55°30' E 015°28'  

Dump ship's entire track history